sensor_id;sensor_type;location;lat;lon;timestamp;P1;durP1;ratioP1;P2;durP2;ratioP2
2646;SDS011;1333;50.958;6.770;2023-04-15T00:01:14;3.53;;;2.30;;
2646;SDS011;1333;50.958;6.770;2023-04-15T00:03:43;1.70;;;1.60;;
2646;SDS011;1333;50.958;6.770;2023-04-15T00:06:09;2.60;;;1.90;;
2646;SDS011;1333;50.958;6.770;2023-04-15T00:08:34;2.30;;;2.00;;
2646;SDS011;1333;50.958;6.770;2023-04-15T00:11:00;4.47;;;2.00;;
2646;SDS011;1333;50.958;6.770;2023-04-15T00:13:29;2.83;;;2.03;;
2646;SDS011;1333;50.958;6.770;2023-04-15T00:15:55;2.07;;;1.60;;
2646;SDS011;1333;50.958;6.770;2023-04-15T00:18:21;3.27;;;2.37;;
2646;SDS011;1333;50.958;6.770;2023-04-15T00:20:47;3.10;;;1.70;;
2646;SDS011;1333;50.958;6.770;2023-04-15T00:23:13;6.03;;;2.77;;
2646;SDS011;1333;50.958;6.770;2023-04-15T00:25:39;2.23;;;1.93;;
2646;SDS011;1333;50.958;6.770;2023-04-15T00:28:04;1.97;;;1.83;;
2646;SDS011;1333;50.958;6.770;2023-04-15T00:30:30;2.70;;;2.20;;
2646;SDS011;1333;50.958;6.770;2023-04-15T00:32:55;1.80;;;1.70;;
2646;SDS011;1333;50.958;6.770;2023-04-15T00:35:21;4.50;;;2.00;;
2646;SDS011;1333;50.958;6.770;2023-04-15T00:37:47;3.03;;;2.40;;
2646;SDS011;1333;50.958;6.770;2023-04-15T00:40:13;1.93;;;1.40;;
2646;SDS011;1333;50.958;6.770;2023-04-15T00:42:42;1.93;;;1.50;;
2646;SDS011;1333;50.958;6.770;2023-04-15T00:45:08;2.03;;;1.60;;
2646;SDS011;1333;50.958;6.770;2023-04-15T00:47:35;2.00;;;1.33;;
2646;SDS011;1333;50.958;6.770;2023-04-15T00:50:01;3.40;;;2.00;;
2646;SDS011;1333;50.958;6.770;2023-04-15T00:52:27;3.73;;;2.10;;
2646;SDS011;1333;50.958;6.770;2023-04-15T00:54:52;7.63;;;2.00;;
2646;SDS011;1333;50.958;6.770;2023-04-15T00:57:19;3.70;;;1.90;;
2646;SDS011;1333;50.958;6.770;2023-04-15T00:59:46;2.00;;;1.40;;
2646;SDS011;1333;50.958;6.770;2023-04-15T01:02:11;1.60;;;1.50;;
2646;SDS011;1333;50.958;6.770;2023-04-15T01:04:37;2.20;;;2.10;;
2646;SDS011;1333;50.958;6.770;2023-04-15T01:07:02;10.10;;;1.80;;
2646;SDS011;1333;50.958;6.770;2023-04-15T01:09:28;2.03;;;1.83;;
2646;SDS011;1333;50.958;6.770;2023-04-15T01:11:53;4.63;;;1.80;;
2646;SDS011;1333;50.958;6.770;2023-04-15T01:14:19;3.20;;;1.50;;
2646;SDS011;1333;50.958;6.770;2023-04-15T01:16:45;2.20;;;1.60;;
2646;SDS011;1333;50.958;6.770;2023-04-15T01:19:11;3.40;;;1.90;;
2646;SDS011;1333;50.958;6.770;2023-04-15T01:21:40;3.50;;;1.50;;
2646;SDS011;1333;50.958;6.770;2023-04-15T01:24:07;3.27;;;1.70;;
2646;SDS011;1333;50.958;6.770;2023-04-15T01:26:37;3.30;;;1.70;;
2646;SDS011;1333;50.958;6.770;2023-04-15T01:29:03;4.30;;;1.83;;
2646;SDS011;1333;50.958;6.770;2023-04-15T01:31:28;2.17;;;1.97;;
2646;SDS011;1333;50.958;6.770;2023-04-15T01:33:54;2.03;;;1.50;;
2646;SDS011;1333;50.958;6.770;2023-04-15T01:36:20;2.57;;;2.17;;
2646;SDS011;1333;50.958;6.770;2023-04-15T01:38:45;2.30;;;1.67;;
2646;SDS011;1333;50.958;6.770;2023-04-15T01:41:12;2.07;;;1.50;;
2646;SDS011;1333;50.958;6.770;2023-04-15T01:43:38;2.10;;;1.90;;
2646;SDS011;1333;50.958;6.770;2023-04-15T01:46:04;1.93;;;1.80;;
2646;SDS011;1333;50.958;6.770;2023-04-15T01:48:30;1.50;;;1.40;;
2646;SDS011;1333;50.958;6.770;2023-04-15T01:50:57;2.07;;;1.60;;
2646;SDS011;1333;50.958;6.770;2023-04-15T01:53:23;4.33;;;1.60;;
2646;SDS011;1333;50.958;6.770;2023-04-15T01:55:49;2.13;;;1.90;;
2646;SDS011;1333;50.958;6.770;2023-04-15T01:58:16;2.70;;;1.83;;
2646;SDS011;1333;50.958;6.770;2023-04-15T02:00:42;4.73;;;2.13;;
2646;SDS011;1333;50.958;6.770;2023-04-15T02:03:08;1.97;;;1.63;;
2646;SDS011;1333;50.958;6.770;2023-04-15T02:05:33;2.27;;;1.60;;
2646;SDS011;1333;50.958;6.770;2023-04-15T02:07:59;4.10;;;1.63;;
2646;SDS011;1333;50.958;6.770;2023-04-15T02:10:25;3.13;;;2.73;;
2646;SDS011;1333;50.958;6.770;2023-04-15T02:12:51;3.37;;;2.70;;
2646;SDS011;1333;50.958;6.770;2023-04-15T02:15:16;1.97;;;1.33;;
2646;SDS011;1333;50.958;6.770;2023-04-15T02:17:42;1.80;;;1.50;;
2646;SDS011;1333;50.958;6.770;2023-04-15T02:20:10;1.50;;;1.40;;
2646;SDS011;1333;50.958;6.770;2023-04-15T02:22:35;1.60;;;1.50;;
2646;SDS011;1333;50.958;6.770;2023-04-15T02:25:01;4.50;;;2.40;;
2646;SDS011;1333;50.958;6.770;2023-04-15T02:27:27;1.47;;;1.20;;
2646;SDS011;1333;50.958;6.770;2023-04-15T02:29:53;2.33;;;2.13;;
2646;SDS011;1333;50.958;6.770;2023-04-15T02:32:18;5.63;;;3.33;;
2646;SDS011;1333;50.958;6.770;2023-04-15T02:34:45;4.13;;;3.10;;
2646;SDS011;1333;50.958;6.770;2023-04-15T02:37:11;2.10;;;1.90;;
2646;SDS011;1333;50.958;6.770;2023-04-15T02:39:37;3.27;;;2.03;;
2646;SDS011;1333;50.958;6.770;2023-04-15T02:42:03;2.27;;;1.90;;
2646;SDS011;1333;50.958;6.770;2023-04-15T02:44:30;3.63;;;1.97;;
2646;SDS011;1333;50.958;6.770;2023-04-15T02:46:56;2.60;;;2.20;;
2646;SDS011;1333;50.958;6.770;2023-04-15T02:49:22;2.07;;;1.40;;
2646;SDS011;1333;50.958;6.770;2023-04-15T02:51:49;2.17;;;1.60;;
2646;SDS011;1333;50.958;6.770;2023-04-15T02:54:18;2.40;;;1.80;;
2646;SDS011;1333;50.958;6.770;2023-04-15T02:56:46;1.90;;;1.80;;
2646;SDS011;1333;50.958;6.770;2023-04-15T02:59:12;2.47;;;1.80;;
2646;SDS011;1333;50.958;6.770;2023-04-15T03:01:37;4.00;;;2.07;;
2646;SDS011;1333;50.958;6.770;2023-04-15T03:04:03;1.93;;;1.70;;
2646;SDS011;1333;50.958;6.770;2023-04-15T03:06:28;2.97;;;1.70;;
2646;SDS011;1333;50.958;6.770;2023-04-15T03:08:55;1.87;;;1.53;;
2646;SDS011;1333;50.958;6.770;2023-04-15T03:11:21;3.30;;;1.73;;
2646;SDS011;1333;50.958;6.770;2023-04-15T03:13:47;3.40;;;1.80;;
2646;SDS011;1333;50.958;6.770;2023-04-15T03:16:12;2.67;;;1.80;;
2646;SDS011;1333;50.958;6.770;2023-04-15T03:18:38;2.13;;;1.37;;
2646;SDS011;1333;50.958;6.770;2023-04-15T03:21:04;2.00;;;1.83;;
2646;SDS011;1333;50.958;6.770;2023-04-15T03:23:30;1.50;;;1.40;;
2646;SDS011;1333;50.958;6.770;2023-04-15T03:25:56;2.60;;;1.70;;
2646;SDS011;1333;50.958;6.770;2023-04-15T03:28:22;1.97;;;1.77;;
2646;SDS011;1333;50.958;6.770;2023-04-15T03:30:48;2.50;;;2.07;;
2646;SDS011;1333;50.958;6.770;2023-04-15T03:33:14;2.13;;;1.60;;
2646;SDS011;1333;50.958;6.770;2023-04-15T03:35:39;5.00;;;1.90;;
2646;SDS011;1333;50.958;6.770;2023-04-15T03:38:05;3.33;;;1.80;;
2646;SDS011;1333;50.958;6.770;2023-04-15T03:40:31;4.33;;;1.97;;
2646;SDS011;1333;50.958;6.770;2023-04-15T03:42:56;3.87;;;1.90;;
2646;SDS011;1333;50.958;6.770;2023-04-15T03:45:22;3.30;;;2.00;;
2646;SDS011;1333;50.958;6.770;2023-04-15T03:47:47;3.60;;;1.80;;
2646;SDS011;1333;50.958;6.770;2023-04-15T03:50:13;2.73;;;2.53;;
2646;SDS011;1333;50.958;6.770;2023-04-15T03:52:39;5.50;;;1.80;;
2646;SDS011;1333;50.958;6.770;2023-04-15T03:55:05;2.70;;;2.17;;
2646;SDS011;1333;50.958;6.770;2023-04-15T03:57:30;2.70;;;1.80;;
2646;SDS011;1333;50.958;6.770;2023-04-15T03:59:56;1.73;;;1.60;;
2646;SDS011;1333;50.958;6.770;2023-04-15T04:02:22;2.30;;;2.10;;
2646;SDS011;1333;50.958;6.770;2023-04-15T04:04:47;4.70;;;2.60;;
2646;SDS011;1333;50.958;6.770;2023-04-15T04:07:16;2.33;;;2.13;;
2646;SDS011;1333;50.958;6.770;2023-04-15T04:09:42;5.40;;;3.40;;
2646;SDS011;1333;50.958;6.770;2023-04-15T04:12:08;42.20;;;22.40;;
2646;SDS011;1333;50.958;6.770;2023-04-15T04:14:33;27.23;;;15.07;;
2646;SDS011;1333;50.958;6.770;2023-04-15T04:16:59;14.63;;;7.87;;
2646;SDS011;1333;50.958;6.770;2023-04-15T04:19:24;5.37;;;4.20;;
2646;SDS011;1333;50.958;6.770;2023-04-15T04:21:50;6.23;;;3.23;;
2646;SDS011;1333;50.958;6.770;2023-04-15T04:24:16;4.80;;;3.10;;
2646;SDS011;1333;50.958;6.770;2023-04-15T04:26:42;3.23;;;2.37;;
2646;SDS011;1333;50.958;6.770;2023-04-15T04:29:07;3.33;;;2.60;;
2646;SDS011;1333;50.958;6.770;2023-04-15T04:31:33;3.60;;;3.17;;
2646;SDS011;1333;50.958;6.770;2023-04-15T04:33:58;4.27;;;2.77;;
2646;SDS011;1333;50.958;6.770;2023-04-15T04:36:24;4.60;;;2.70;;
2646;SDS011;1333;50.958;6.770;2023-04-15T04:38:50;3.73;;;2.47;;
2646;SDS011;1333;50.958;6.770;2023-04-15T04:41:16;4.50;;;3.17;;
2646;SDS011;1333;50.958;6.770;2023-04-15T04:43:42;4.03;;;2.97;;
2646;SDS011;1333;50.958;6.770;2023-04-15T04:46:07;6.93;;;4.20;;
2646;SDS011;1333;50.958;6.770;2023-04-15T04:48:34;7.57;;;3.77;;
2646;SDS011;1333;50.958;6.770;2023-04-15T04:50:59;4.50;;;3.50;;
2646;SDS011;1333;50.958;6.770;2023-04-15T04:53:25;4.07;;;2.70;;
2646;SDS011;1333;50.958;6.770;2023-04-15T04:55:51;4.60;;;2.80;;
2646;SDS011;1333;50.958;6.770;2023-04-15T04:58:17;5.70;;;2.80;;
2646;SDS011;1333;50.958;6.770;2023-04-15T05:00:43;4.83;;;2.37;;
2646;SDS011;1333;50.958;6.770;2023-04-15T05:03:08;8.47;;;4.50;;
2646;SDS011;1333;50.958;6.770;2023-04-15T05:05:34;3.60;;;3.00;;
2646;SDS011;1333;50.958;6.770;2023-04-15T05:08:01;3.17;;;2.60;;
2646;SDS011;1333;50.958;6.770;2023-04-15T05:10:26;2.93;;;2.50;;
2646;SDS011;1333;50.958;6.770;2023-04-15T05:12:52;4.87;;;3.47;;
2646;SDS011;1333;50.958;6.770;2023-04-15T05:15:17;3.40;;;2.80;;
2646;SDS011;1333;50.958;6.770;2023-04-15T05:17:43;5.47;;;3.23;;
2646;SDS011;1333;50.958;6.770;2023-04-15T05:20:08;4.83;;;3.40;;
2646;SDS011;1333;50.958;6.770;2023-04-15T05:22:34;4.00;;;3.03;;
2646;SDS011;1333;50.958;6.770;2023-04-15T05:25:01;5.43;;;2.90;;
2646;SDS011;1333;50.958;6.770;2023-04-15T05:27:26;5.70;;;3.50;;
2646;SDS011;1333;50.958;6.770;2023-04-15T05:29:52;4.23;;;3.83;;
2646;SDS011;1333;50.958;6.770;2023-04-15T05:32:17;3.80;;;3.40;;
2646;SDS011;1333;50.958;6.770;2023-04-15T05:34:43;5.70;;;3.37;;
2646;SDS011;1333;50.958;6.770;2023-04-15T05:37:08;4.63;;;3.80;;
2646;SDS011;1333;50.958;6.770;2023-04-15T05:39:34;7.17;;;3.90;;
2646;SDS011;1333;50.958;6.770;2023-04-15T05:42:00;3.23;;;2.93;;
2646;SDS011;1333;50.958;6.770;2023-04-15T05:44:26;6.00;;;3.20;;
2646;SDS011;1333;50.958;6.770;2023-04-15T05:46:51;5.70;;;4.00;;
2646;SDS011;1333;50.958;6.770;2023-04-15T05:49:17;5.33;;;3.07;;
2646;SDS011;1333;50.958;6.770;2023-04-15T05:51:42;6.77;;;3.60;;
2646;SDS011;1333;50.958;6.770;2023-04-15T05:54:08;4.67;;;3.03;;
2646;SDS011;1333;50.958;6.770;2023-04-15T05:56:33;3.53;;;3.13;;
2646;SDS011;1333;50.958;6.770;2023-04-15T05:58:59;5.67;;;3.10;;
2646;SDS011;1333;50.958;6.770;2023-04-15T06:01:24;5.33;;;3.80;;
2646;SDS011;1333;50.958;6.770;2023-04-15T06:03:50;3.83;;;2.80;;
2646;SDS011;1333;50.958;6.770;2023-04-15T06:06:15;4.00;;;2.80;;
2646;SDS011;1333;50.958;6.770;2023-04-15T06:08:41;5.03;;;3.30;;
2646;SDS011;1333;50.958;6.770;2023-04-15T06:11:06;5.10;;;3.23;;
2646;SDS011;1333;50.958;6.770;2023-04-15T06:13:32;4.73;;;3.20;;
2646;SDS011;1333;50.958;6.770;2023-04-15T06:15:58;6.80;;;3.77;;
2646;SDS011;1333;50.958;6.770;2023-04-15T06:18:24;5.10;;;3.83;;
2646;SDS011;1333;50.958;6.770;2023-04-15T06:20:49;4.43;;;3.00;;
2646;SDS011;1333;50.958;6.770;2023-04-15T06:23:15;5.80;;;3.10;;
2646;SDS011;1333;50.958;6.770;2023-04-15T06:25:41;5.73;;;3.87;;
2646;SDS011;1333;50.958;6.770;2023-04-15T06:28:06;5.20;;;2.83;;
2646;SDS011;1333;50.958;6.770;2023-04-15T06:30:32;4.73;;;2.70;;
2646;SDS011;1333;50.958;6.770;2023-04-15T06:32:58;4.27;;;3.23;;
2646;SDS011;1333;50.958;6.770;2023-04-15T06:35:23;4.60;;;3.23;;
2646;SDS011;1333;50.958;6.770;2023-04-15T06:37:49;3.80;;;3.37;;
2646;SDS011;1333;50.958;6.770;2023-04-15T06:40:15;4.87;;;3.20;;
2646;SDS011;1333;50.958;6.770;2023-04-15T06:42:41;2.90;;;2.70;;
2646;SDS011;1333;50.958;6.770;2023-04-15T06:45:06;2.93;;;2.60;;
2646;SDS011;1333;50.958;6.770;2023-04-15T06:47:32;3.80;;;2.80;;
2646;SDS011;1333;50.958;6.770;2023-04-15T06:49:58;5.10;;;3.10;;
2646;SDS011;1333;50.958;6.770;2023-04-15T06:52:23;4.87;;;4.20;;
2646;SDS011;1333;50.958;6.770;2023-04-15T06:54:49;4.70;;;3.27;;
2646;SDS011;1333;50.958;6.770;2023-04-15T06:57:15;4.70;;;3.70;;
2646;SDS011;1333;50.958;6.770;2023-04-15T06:59:40;5.80;;;3.20;;
2646;SDS011;1333;50.958;6.770;2023-04-15T07:02:07;4.67;;;3.80;;
2646;SDS011;1333;50.958;6.770;2023-04-15T07:04:36;7.23;;;3.60;;
2646;SDS011;1333;50.958;6.770;2023-04-15T07:07:01;5.07;;;3.73;;
2646;SDS011;1333;50.958;6.770;2023-04-15T07:09:27;4.97;;;4.00;;
2646;SDS011;1333;50.958;6.770;2023-04-15T07:11:53;14.53;;;4.07;;
2646;SDS011;1333;50.958;6.770;2023-04-15T07:14:18;5.33;;;4.80;;
2646;SDS011;1333;50.958;6.770;2023-04-15T07:16:44;4.60;;;4.20;;
2646;SDS011;1333;50.958;6.770;2023-04-15T07:19:09;6.50;;;4.43;;
2646;SDS011;1333;50.958;6.770;2023-04-15T07:21:35;6.23;;;4.90;;
2646;SDS011;1333;50.958;6.770;2023-04-15T07:24:01;6.63;;;4.77;;
2646;SDS011;1333;50.958;6.770;2023-04-15T07:26:27;6.60;;;4.70;;
2646;SDS011;1333;50.958;6.770;2023-04-15T07:28:52;5.53;;;4.87;;
2646;SDS011;1333;50.958;6.770;2023-04-15T07:31:18;5.90;;;5.30;;
2646;SDS011;1333;50.958;6.770;2023-04-15T07:33:43;6.60;;;4.83;;
2646;SDS011;1333;50.958;6.770;2023-04-15T07:36:09;8.57;;;4.97;;
2646;SDS011;1333;50.958;6.770;2023-04-15T07:38:35;7.20;;;5.60;;
2646;SDS011;1333;50.958;6.770;2023-04-15T07:41:00;5.50;;;4.20;;
2646;SDS011;1333;50.958;6.770;2023-04-15T07:43:26;8.20;;;5.10;;
2646;SDS011;1333;50.958;6.770;2023-04-15T07:45:51;8.33;;;4.60;;
2646;SDS011;1333;50.958;6.770;2023-04-15T07:48:17;8.60;;;5.33;;
2646;SDS011;1333;50.958;6.770;2023-04-15T07:50:42;4.73;;;4.23;;
2646;SDS011;1333;50.958;6.770;2023-04-15T07:53:08;5.00;;;4.60;;
2646;SDS011;1333;50.958;6.770;2023-04-15T07:55:34;7.03;;;4.67;;
2646;SDS011;1333;50.958;6.770;2023-04-15T07:57:59;7.23;;;4.13;;
2646;SDS011;1333;50.958;6.770;2023-04-15T08:00:25;4.97;;;4.57;;
2646;SDS011;1333;50.958;6.770;2023-04-15T08:02:50;5.40;;;4.60;;
2646;SDS011;1333;50.958;6.770;2023-04-15T08:05:17;6.90;;;4.90;;
2646;SDS011;1333;50.958;6.770;2023-04-15T08:07:43;7.17;;;5.17;;
2646;SDS011;1333;50.958;6.770;2023-04-15T08:10:10;5.50;;;5.00;;
2646;SDS011;1333;50.958;6.770;2023-04-15T08:12:36;6.37;;;4.70;;
2646;SDS011;1333;50.958;6.770;2023-04-15T08:15:01;9.57;;;4.97;;
2646;SDS011;1333;50.958;6.770;2023-04-15T08:17:27;4.63;;;4.23;;
2646;SDS011;1333;50.958;6.770;2023-04-15T08:19:53;5.17;;;4.40;;
2646;SDS011;1333;50.958;6.770;2023-04-15T08:22:18;5.37;;;4.87;;
2646;SDS011;1333;50.958;6.770;2023-04-15T08:24:44;5.03;;;4.53;;
2646;SDS011;1333;50.958;6.770;2023-04-15T08:27:09;5.60;;;5.20;;
2646;SDS011;1333;50.958;6.770;2023-04-15T08:29:35;5.63;;;4.93;;
2646;SDS011;1333;50.958;6.770;2023-04-15T08:32:00;4.73;;;3.93;;
2646;SDS011;1333;50.958;6.770;2023-04-15T08:34:26;4.67;;;4.10;;
2646;SDS011;1333;50.958;6.770;2023-04-15T08:36:52;5.10;;;4.60;;
2646;SDS011;1333;50.958;6.770;2023-04-15T08:39:18;3.43;;;3.13;;
2646;SDS011;1333;50.958;6.770;2023-04-15T08:44:20;3.27;;;2.63;;
2646;SDS011;1333;50.958;6.770;2023-04-15T08:46:48;5.07;;;3.83;;
2646;SDS011;1333;50.958;6.770;2023-04-15T08:49:16;3.83;;;3.30;;
2646;SDS011;1333;50.958;6.770;2023-04-15T08:51:43;3.30;;;3.00;;
2646;SDS011;1333;50.958;6.770;2023-04-15T08:54:09;4.10;;;3.20;;
2646;SDS011;1333;50.958;6.770;2023-04-15T08:56:35;2.43;;;2.23;;
2646;SDS011;1333;50.958;6.770;2023-04-15T08:59:01;2.80;;;2.20;;
2646;SDS011;1333;50.958;6.770;2023-04-15T09:01:27;1.90;;;1.80;;
2646;SDS011;1333;50.958;6.770;2023-04-15T09:03:53;2.87;;;2.27;;
2646;SDS011;1333;50.958;6.770;2023-04-15T09:06:20;2.43;;;1.90;;
2646;SDS011;1333;50.958;6.770;2023-04-15T09:08:46;2.03;;;1.57;;
2646;SDS011;1333;50.958;6.770;2023-04-15T09:11:13;1.70;;;1.60;;
2646;SDS011;1333;50.958;6.770;2023-04-15T09:13:39;1.70;;;1.60;;
2646;SDS011;1333;50.958;6.770;2023-04-15T09:16:05;2.57;;;2.20;;
2646;SDS011;1333;50.958;6.770;2023-04-15T09:18:34;2.27;;;2.07;;
2646;SDS011;1333;50.958;6.770;2023-04-15T09:21:08;2.23;;;2.00;;
2646;SDS011;1333;50.958;6.770;2023-04-15T09:23:35;2.00;;;1.67;;
2646;SDS011;1333;50.958;6.770;2023-04-15T09:26:03;1.83;;;1.73;;
2646;SDS011;1333;50.958;6.770;2023-04-15T09:28:30;2.10;;;1.90;;
2646;SDS011;1333;50.958;6.770;2023-04-15T09:30:56;2.47;;;1.50;;
2646;SDS011;1333;50.958;6.770;2023-04-15T09:33:27;1.90;;;1.80;;
2646;SDS011;1333;50.958;6.770;2023-04-15T09:36:00;1.80;;;1.70;;
2646;SDS011;1333;50.958;6.770;2023-04-15T09:38:28;2.10;;;2.00;;
2646;SDS011;1333;50.958;6.770;2023-04-15T09:40:55;2.23;;;2.03;;
2646;SDS011;1333;50.958;6.770;2023-04-15T09:43:21;2.30;;;2.10;;
2646;SDS011;1333;50.958;6.770;2023-04-15T09:45:51;2.10;;;1.90;;
2646;SDS011;1333;50.958;6.770;2023-04-15T09:48:21;2.70;;;2.50;;
2646;SDS011;1333;50.958;6.770;2023-04-15T09:50:48;2.00;;;1.80;;
2646;SDS011;1333;50.958;6.770;2023-04-15T09:53:15;3.43;;;2.10;;
2646;SDS011;1333;50.958;6.770;2023-04-15T09:55:44;3.77;;;3.47;;
2646;SDS011;1333;50.958;6.770;2023-04-15T09:58:20;3.23;;;2.80;;
2646;SDS011;1333;50.958;6.770;2023-04-15T10:00:47;2.90;;;2.10;;
2646;SDS011;1333;50.958;6.770;2023-04-15T10:03:17;3.90;;;2.47;;
2646;SDS011;1333;50.958;6.770;2023-04-15T10:05:45;2.97;;;2.57;;
2646;SDS011;1333;50.958;6.770;2023-04-15T10:08:12;2.20;;;1.90;;
2646;SDS011;1333;50.958;6.770;2023-04-15T10:10:40;2.40;;;2.20;;
2646;SDS011;1333;50.958;6.770;2023-04-15T10:13:05;2.10;;;1.90;;
2646;SDS011;1333;50.958;6.770;2023-04-15T10:15:32;2.53;;;2.33;;
2646;SDS011;1333;50.958;6.770;2023-04-15T10:17:58;3.47;;;2.80;;
2646;SDS011;1333;50.958;6.770;2023-04-15T10:20:25;2.57;;;2.23;;
2646;SDS011;1333;50.958;6.770;2023-04-15T10:22:52;3.23;;;2.93;;
2646;SDS011;1333;50.958;6.770;2023-04-15T10:25:18;2.50;;;1.90;;
2646;SDS011;1333;50.958;6.770;2023-04-15T10:27:44;2.50;;;2.30;;
2646;SDS011;1333;50.958;6.770;2023-04-15T10:30:12;2.77;;;2.53;;
2646;SDS011;1333;50.958;6.770;2023-04-15T10:32:39;2.47;;;2.27;;
2646;SDS011;1333;50.958;6.770;2023-04-15T10:35:05;2.30;;;2.20;;
2646;SDS011;1333;50.958;6.770;2023-04-15T10:37:37;1.80;;;1.70;;
2646;SDS011;1333;50.958;6.770;2023-04-15T10:42:59;6.20;;;5.50;;
2646;SDS011;1333;50.958;6.770;2023-04-15T10:45:26;2.10;;;1.90;;
2646;SDS011;1333;50.958;6.770;2023-04-15T10:48:00;2.50;;;1.93;;
2646;SDS011;1333;50.958;6.770;2023-04-15T10:50:27;2.53;;;2.33;;
2646;SDS011;1333;50.958;6.770;2023-04-15T10:52:54;2.30;;;1.93;;
2646;SDS011;1333;50.958;6.770;2023-04-15T10:55:22;2.40;;;2.20;;
2646;SDS011;1333;50.958;6.770;2023-04-15T10:57:52;2.73;;;2.53;;
2646;SDS011;1333;50.958;6.770;2023-04-15T11:00:21;2.07;;;1.73;;
2646;SDS011;1333;50.958;6.770;2023-04-15T11:05:18;4.73;;;1.97;;
2646;SDS011;1333;50.958;6.770;2023-04-15T11:12:38;2.17;;;1.97;;
2646;SDS011;1333;50.958;6.770;2023-04-15T11:17:51;2.90;;;2.30;;
2646;SDS011;1333;50.958;6.770;2023-04-15T11:20:17;3.40;;;2.60;;
2646;SDS011;1333;50.958;6.770;2023-04-15T11:22:46;2.00;;;1.80;;
2646;SDS011;1333;50.958;6.770;2023-04-15T11:25:22;2.50;;;2.30;;
2646;SDS011;1333;50.958;6.770;2023-04-15T11:27:48;2.47;;;2.30;;
2646;SDS011;1333;50.958;6.770;2023-04-15T11:30:18;1.70;;;1.60;;
2646;SDS011;1333;50.958;6.770;2023-04-15T11:32:48;3.13;;;2.20;;
2646;SDS011;1333;50.958;6.770;2023-04-15T11:35:15;2.80;;;2.60;;
2646;SDS011;1333;50.958;6.770;2023-04-15T11:37:41;4.00;;;3.70;;
2646;SDS011;1333;50.958;6.770;2023-04-15T11:40:07;2.73;;;2.50;;
2646;SDS011;1333;50.958;6.770;2023-04-15T11:42:33;2.17;;;1.97;;
2646;SDS011;1333;50.958;6.770;2023-04-15T11:45:08;2.10;;;2.00;;
2646;SDS011;1333;50.958;6.770;2023-04-15T11:47:39;2.20;;;2.00;;
2646;SDS011;1333;50.958;6.770;2023-04-15T11:50:12;2.23;;;2.03;;
2646;SDS011;1333;50.958;6.770;2023-04-15T11:52:38;2.17;;;2.07;;
2646;SDS011;1333;50.958;6.770;2023-04-15T11:55:04;9.10;;;1.83;;
2646;SDS011;1333;50.958;6.770;2023-04-15T11:57:32;1.70;;;1.60;;
2646;SDS011;1333;50.958;6.770;2023-04-15T11:59:59;2.70;;;2.27;;
2646;SDS011;1333;50.958;6.770;2023-04-15T12:02:30;2.00;;;1.90;;
2646;SDS011;1333;50.958;6.770;2023-04-15T12:05:03;4.30;;;2.30;;
2646;SDS011;1333;50.958;6.770;2023-04-15T12:07:30;2.30;;;2.00;;
2646;SDS011;1333;50.958;6.770;2023-04-15T12:09:56;2.47;;;2.10;;
2646;SDS011;1333;50.958;6.770;2023-04-15T12:12:28;3.07;;;2.67;;
2646;SDS011;1333;50.958;6.770;2023-04-15T12:14:55;2.63;;;2.43;;
2646;SDS011;1333;50.958;6.770;2023-04-15T12:17:21;3.40;;;3.10;;
2646;SDS011;1333;50.958;6.770;2023-04-15T12:19:47;3.57;;;3.27;;
2646;SDS011;1333;50.958;6.770;2023-04-15T12:22:15;4.17;;;3.87;;
2646;SDS011;1333;50.958;6.770;2023-04-15T12:24:42;4.13;;;3.73;;
2646;SDS011;1333;50.958;6.770;2023-04-15T12:27:11;5.90;;;5.40;;
2646;SDS011;1333;50.958;6.770;2023-04-15T12:29:37;7.37;;;6.77;;
2646;SDS011;1333;50.958;6.770;2023-04-15T12:32:08;6.50;;;6.00;;
2646;SDS011;1333;50.958;6.770;2023-04-15T12:34:39;6.97;;;6.27;;
2646;SDS011;1333;50.958;6.770;2023-04-15T12:37:07;7.40;;;6.70;;
2646;SDS011;1333;50.958;6.770;2023-04-15T12:39:35;9.13;;;8.23;;
2646;SDS011;1333;50.958;6.770;2023-04-15T12:42:05;8.63;;;7.00;;
2646;SDS011;1333;50.958;6.770;2023-04-15T12:44:31;7.47;;;6.77;;
2646;SDS011;1333;50.958;6.770;2023-04-15T12:46:58;8.60;;;7.40;;
2646;SDS011;1333;50.958;6.770;2023-04-15T12:49:24;8.40;;;6.93;;
2646;SDS011;1333;50.958;6.770;2023-04-15T12:51:51;6.60;;;5.97;;
2646;SDS011;1333;50.958;6.770;2023-04-15T12:54:18;6.83;;;6.20;;
2646;SDS011;1333;50.958;6.770;2023-04-15T12:56:45;7.30;;;6.60;;
2646;SDS011;1333;50.958;6.770;2023-04-15T12:59:12;5.97;;;5.47;;
2646;SDS011;1333;50.958;6.770;2023-04-15T13:01:38;5.40;;;5.00;;
2646;SDS011;1333;50.958;6.770;2023-04-15T13:04:04;9.37;;;6.70;;
2646;SDS011;1333;50.958;6.770;2023-04-15T13:06:30;6.37;;;5.87;;
2646;SDS011;1333;50.958;6.770;2023-04-15T13:08:57;8.10;;;7.30;;
2646;SDS011;1333;50.958;6.770;2023-04-15T13:11:23;10.67;;;9.60;;
2646;SDS011;1333;50.958;6.770;2023-04-15T13:13:49;9.17;;;8.27;;
2646;SDS011;1333;50.958;6.770;2023-04-15T13:16:16;7.50;;;6.63;;
2646;SDS011;1333;50.958;6.770;2023-04-15T13:18:42;6.47;;;5.83;;
2646;SDS011;1333;50.958;6.770;2023-04-15T13:21:10;6.00;;;5.47;;
2646;SDS011;1333;50.958;6.770;2023-04-15T13:23:36;5.03;;;4.53;;
2646;SDS011;1333;50.958;6.770;2023-04-15T13:26:02;5.07;;;4.53;;
2646;SDS011;1333;50.958;6.770;2023-04-15T13:28:28;7.83;;;4.73;;
2646;SDS011;1333;50.958;6.770;2023-04-15T13:30:53;5.20;;;4.10;;
2646;SDS011;1333;50.958;6.770;2023-04-15T13:33:19;3.60;;;3.30;;
2646;SDS011;1333;50.958;6.770;2023-04-15T13:35:44;4.90;;;3.30;;
2646;SDS011;1333;50.958;6.770;2023-04-15T13:38:10;4.10;;;3.53;;
2646;SDS011;1333;50.958;6.770;2023-04-15T13:40:35;4.27;;;3.37;;
2646;SDS011;1333;50.958;6.770;2023-04-15T13:43:01;3.87;;;3.47;;
2646;SDS011;1333;50.958;6.770;2023-04-15T13:45:27;3.70;;;3.40;;
2646;SDS011;1333;50.958;6.770;2023-04-15T13:47:54;3.50;;;3.20;;
2646;SDS011;1333;50.958;6.770;2023-04-15T13:50:21;3.60;;;3.20;;
2646;SDS011;1333;50.958;6.770;2023-04-15T13:52:46;3.57;;;2.87;;
2646;SDS011;1333;50.958;6.770;2023-04-15T13:55:12;5.73;;;3.73;;
2646;SDS011;1333;50.958;6.770;2023-04-15T13:57:37;5.77;;;4.83;;
2646;SDS011;1333;50.958;6.770;2023-04-15T14:00:03;4.77;;;4.17;;
2646;SDS011;1333;50.958;6.770;2023-04-15T14:02:30;4.33;;;3.93;;
2646;SDS011;1333;50.958;6.770;2023-04-15T14:04:55;5.37;;;4.50;;
2646;SDS011;1333;50.958;6.770;2023-04-15T14:07:21;5.27;;;4.63;;
2646;SDS011;1333;50.958;6.770;2023-04-15T14:09:46;4.80;;;3.53;;
2646;SDS011;1333;50.958;6.770;2023-04-15T14:12:12;5.97;;;4.90;;
2646;SDS011;1333;50.958;6.770;2023-04-15T14:14:38;4.00;;;3.30;;
2646;SDS011;1333;50.958;6.770;2023-04-15T14:17:04;3.30;;;3.00;;
2646;SDS011;1333;50.958;6.770;2023-04-15T14:19:30;3.73;;;3.27;;
2646;SDS011;1333;50.958;6.770;2023-04-15T14:21:56;3.90;;;3.37;;
2646;SDS011;1333;50.958;6.770;2023-04-15T14:24:22;4.37;;;2.87;;
2646;SDS011;1333;50.958;6.770;2023-04-15T14:26:47;4.00;;;3.10;;
2646;SDS011;1333;50.958;6.770;2023-04-15T14:29:13;3.37;;;3.07;;
2646;SDS011;1333;50.958;6.770;2023-04-15T14:31:38;3.87;;;2.60;;
2646;SDS011;1333;50.958;6.770;2023-04-15T14:34:04;5.47;;;3.70;;
2646;SDS011;1333;50.958;6.770;2023-04-15T14:36:30;5.90;;;4.27;;
2646;SDS011;1333;50.958;6.770;2023-04-15T14:38:56;2.73;;;2.53;;
2646;SDS011;1333;50.958;6.770;2023-04-15T14:41:21;2.93;;;2.63;;
2646;SDS011;1333;50.958;6.770;2023-04-15T14:43:47;2.93;;;2.63;;
2646;SDS011;1333;50.958;6.770;2023-04-15T14:46:13;3.80;;;2.70;;
2646;SDS011;1333;50.958;6.770;2023-04-15T14:48:38;4.37;;;2.80;;
2646;SDS011;1333;50.958;6.770;2023-04-15T14:51:05;3.53;;;2.70;;
2646;SDS011;1333;50.958;6.770;2023-04-15T14:53:30;2.70;;;2.37;;
2646;SDS011;1333;50.958;6.770;2023-04-15T14:55:56;2.10;;;1.90;;
2646;SDS011;1333;50.958;6.770;2023-04-15T14:58:22;3.97;;;2.50;;
2646;SDS011;1333;50.958;6.770;2023-04-15T15:00:47;2.53;;;2.03;;
2646;SDS011;1333;50.958;6.770;2023-04-15T15:03:13;3.10;;;2.70;;
2646;SDS011;1333;50.958;6.770;2023-04-15T15:05:39;2.53;;;2.23;;
2646;SDS011;1333;50.958;6.770;2023-04-15T15:08:08;2.50;;;2.30;;
2646;SDS011;1333;50.958;6.770;2023-04-15T15:10:34;3.17;;;2.93;;
2646;SDS011;1333;50.958;6.770;2023-04-15T15:13:06;3.37;;;2.73;;
2646;SDS011;1333;50.958;6.770;2023-04-15T15:15:33;2.80;;;2.27;;
2646;SDS011;1333;50.958;6.770;2023-04-15T15:18:00;6.10;;;2.97;;
2646;SDS011;1333;50.958;6.770;2023-04-15T15:20:26;2.93;;;2.60;;
2646;SDS011;1333;50.958;6.770;2023-04-15T15:22:52;3.23;;;2.70;;
2646;SDS011;1333;50.958;6.770;2023-04-15T15:25:17;3.40;;;3.10;;